createdAt,value
2023-01-22T00:00:18.621Z,8.63
2023-01-22T00:05:22.011Z,8.00
2023-01-22T00:10:25.868Z,8.03
2023-01-22T00:15:28.104Z,7.30
2023-01-22T00:20:30.612Z,7.77
2023-01-22T00:25:34.511Z,7.67
2023-01-22T00:30:36.775Z,8.40
2023-01-22T00:35:39.183Z,8.40
2023-01-22T00:40:42.594Z,8.53
2023-01-22T00:45:44.870Z,8.53
2023-01-22T00:50:47.082Z,7.23
2023-01-22T00:55:56.827Z,7.83
2023-01-22T01:00:58.885Z,7.27
2023-01-22T01:06:02.873Z,8.27
2023-01-22T01:11:08.145Z,7.80
2023-01-22T01:16:14.678Z,8.30
2023-01-22T01:21:19.428Z,8.13
2023-01-22T01:26:23.036Z,8.63
2023-01-22T01:31:26.533Z,8.23
2023-01-22T01:36:47.515Z,7.83
2023-01-22T01:41:52.102Z,7.77
2023-01-22T01:46:57.701Z,7.77
2023-01-22T01:52:03.816Z,8.47
2023-01-22T01:57:11.174Z,7.97
2023-01-22T02:02:13.213Z,7.90
2023-01-22T02:07:15.514Z,8.47
2023-01-22T02:12:18.855Z,6.97
2023-01-22T02:17:23.408Z,8.17
2023-01-22T02:22:31.166Z,9.07
2023-01-22T02:27:33.425Z,9.27
2023-01-22T02:32:35.744Z,8.67
2023-01-22T02:37:39.730Z,8.57
2023-01-22T02:42:42.125Z,9.43
2023-01-22T02:47:44.128Z,10.33
2023-01-22T02:52:47.437Z,8.83
2023-01-22T02:57:49.536Z,8.17
2023-01-22T03:02:51.731Z,8.53
2023-01-22T03:07:55.195Z,8.77
2023-01-22T03:13:14.587Z,8.60
2023-01-22T03:18:34.061Z,9.87
2023-01-22T03:23:38.141Z,9.73
2023-01-22T03:28:40.744Z,8.90
2023-01-22T03:33:43.334Z,9.00
2023-01-22T03:38:46.837Z,9.27
2023-01-22T03:43:49.194Z,9.33
2023-01-22T03:48:53.045Z,10.50
2023-01-22T03:53:56.923Z,9.77
2023-01-22T03:58:59.538Z,9.57
2023-01-22T04:04:01.969Z,9.80
2023-01-22T04:09:05.521Z,9.63
2023-01-22T04:14:07.844Z,9.90
2023-01-22T04:19:11.502Z,10.30
2023-01-22T04:24:15.340Z,10.33
2023-01-22T04:29:17.368Z,9.97
2023-01-22T04:34:19.599Z,10.97
2023-01-22T04:39:23.352Z,11.23
2023-01-22T04:44:25.493Z,10.37
2023-01-22T04:49:27.488Z,11.03
2023-01-22T04:54:30.907Z,10.90
2023-01-22T04:59:33.032Z,11.33
2023-01-22T05:04:34.872Z,11.37
2023-01-22T05:09:37.981Z,9.90
2023-01-22T05:14:40.185Z,11.20
2023-01-22T05:19:42.517Z,11.17
2023-01-22T05:24:45.750Z,11.77
2023-01-22T05:29:47.943Z,11.63
2023-01-22T05:34:50.224Z,10.90
2023-01-22T05:39:53.820Z,11.13
2023-01-22T05:44:55.970Z,10.70
2023-01-22T05:49:57.983Z,12.63
2023-01-22T05:55:02.199Z,13.57
2023-01-22T06:00:05.114Z,12.37
2023-01-22T06:05:08.036Z,12.00
2023-01-22T06:10:12.544Z,12.53
2023-01-22T06:15:14.676Z,11.87
2023-01-22T06:20:17.651Z,12.67
2023-01-22T06:25:21.172Z,11.40
2023-01-22T06:30:23.213Z,12.77
2023-01-22T06:35:25.753Z,12.10
2023-01-22T06:40:29.470Z,12.50
2023-01-22T06:45:31.605Z,12.10
2023-01-22T06:50:34.142Z,13.23
2023-01-22T06:55:37.985Z,12.97
2023-01-22T07:00:40.256Z,13.53
2023-01-22T07:05:42.838Z,13.90
2023-01-22T07:10:46.496Z,13.07
2023-01-22T07:15:49.007Z,12.67
2023-01-22T07:20:51.617Z,12.33
2023-01-22T07:25:55.209Z,12.80
2023-01-22T07:30:57.401Z,14.13
2023-01-22T07:35:59.832Z,13.90
2023-01-22T07:41:07.252Z,12.80
2023-01-22T07:46:13.508Z,11.87
2023-01-22T07:51:15.908Z,12.17
2023-01-22T07:56:19.732Z,11.43
2023-01-22T08:01:21.975Z,12.70
2023-01-22T08:06:24.516Z,12.13
2023-01-22T08:11:28.602Z,11.70
2023-01-22T08:16:31.210Z,11.67
2023-01-22T08:21:34.349Z,10.33
2023-01-22T08:26:39.447Z,10.77
2023-01-22T08:31:41.930Z,10.63
2023-01-22T08:36:44.629Z,11.47
2023-01-22T08:41:48.094Z,10.00
2023-01-22T08:46:50.183Z,12.83
2023-01-22T08:51:52.590Z,11.20
2023-01-22T08:56:56.310Z,13.30
2023-01-22T09:01:59.953Z,12.83
2023-01-22T09:07:02.455Z,16.93
2023-01-22T09:12:06.211Z,11.43
2023-01-22T09:17:08.841Z,13.10
2023-01-22T09:22:10.801Z,12.13
2023-01-22T09:27:14.895Z,11.17
2023-01-22T09:32:17.159Z,11.17
2023-01-22T09:37:19.225Z,11.13
2023-01-22T09:42:27.290Z,11.70
2023-01-22T09:47:37.087Z,11.93
2023-01-22T09:52:40.819Z,10.23
2023-01-22T09:57:47.943Z,10.43
2023-01-22T10:02:53.975Z,10.50
2023-01-22T10:08:01.837Z,10.23
2023-01-22T10:13:14.816Z,10.77
2023-01-22T10:18:34.263Z,10.77
2023-01-22T10:23:36.490Z,10.60
2023-01-22T10:28:45.550Z,9.87
2023-01-22T10:33:47.675Z,11.13
2023-01-22T10:38:50.069Z,10.33
2023-01-22T10:43:53.471Z,10.73
2023-01-22T10:49:03.665Z,9.77
2023-01-22T10:54:17.210Z,11.20
2023-01-22T10:59:24.293Z,10.70
2023-01-22T11:04:29.381Z,11.37
2023-01-22T11:09:39.188Z,13.63
2023-01-22T11:14:43.190Z,13.20
2023-01-22T11:19:56.047Z,10.80
2023-01-22T11:24:57.918Z,9.77
2023-01-22T11:30:26.825Z,9.67
2023-01-22T11:35:32.615Z,11.27
2023-01-22T11:40:37.383Z,11.03
2023-01-22T11:45:57.739Z,10.23
2023-01-22T11:51:10.679Z,10.43
2023-01-22T11:56:27.924Z,9.90
2023-01-22T12:01:45.024Z,9.33
2023-01-22T12:07:15.099Z,10.00
2023-01-22T12:12:33.121Z,11.27
2023-01-22T12:18:00.778Z,10.07
2023-01-22T12:23:08.680Z,9.40
2023-01-22T12:28:17.350Z,9.33
2023-01-22T12:33:26.065Z,9.60
2023-01-22T12:38:39.907Z,8.57
2023-01-22T12:43:52.507Z,8.52
2023-01-22T12:49:06.106Z,8.82
2023-01-22T12:54:23.460Z,9.00
2023-01-22T12:59:42.276Z,16.98
2023-01-22T13:04:46.156Z,8.77
2023-01-22T13:09:48.943Z,9.00
2023-01-22T13:14:51.990Z,9.77
2023-01-22T13:19:56.720Z,9.30
2023-01-22T13:25:00.553Z,9.40
2023-01-22T13:30:11.401Z,9.40
2023-01-22T13:35:19.902Z,11.77
2023-01-22T13:40:26.489Z,10.13
2023-01-22T13:45:32.012Z,9.30
2023-01-22T13:50:37.031Z,8.40
2023-01-22T13:55:39.399Z,8.37
2023-01-22T14:00:41.998Z,8.60
2023-01-22T14:05:46.374Z,8.00
2023-01-22T14:10:59.829Z,8.80
2023-01-22T14:16:07.170Z,8.30
2023-01-22T14:21:13.395Z,8.40
2023-01-22T14:26:16.514Z,8.40
2023-01-22T14:31:19.820Z,9.50
2023-01-22T14:36:26.216Z,9.10
2023-01-22T14:41:29.387Z,9.37
2023-01-22T14:46:31.877Z,9.20
2023-01-22T14:51:35.956Z,10.07
2023-01-22T14:56:38.726Z,8.97
2023-01-22T15:01:42.398Z,9.63
2023-01-22T15:06:47.224Z,9.30
2023-01-22T15:11:49.860Z,10.13
2023-01-22T15:16:53.538Z,8.87
2023-01-22T15:21:58.396Z,9.20
2023-01-22T15:27:02.967Z,9.07
2023-01-22T15:32:06.503Z,8.83
2023-01-22T15:37:14.278Z,9.50
2023-01-22T15:42:17.576Z,9.90
2023-01-22T15:47:21.386Z,8.67
2023-01-22T15:52:26.045Z,9.70
2023-01-22T15:57:29.558Z,9.33
2023-01-22T16:02:33.206Z,9.10
2023-01-22T16:07:37.656Z,8.40
2023-01-22T16:12:40.891Z,7.80
2023-01-22T16:17:44.423Z,9.20
2023-01-22T16:22:48.619Z,8.73
2023-01-22T16:27:52.697Z,8.27
2023-01-22T16:32:55.331Z,7.83
2023-01-22T16:38:00.119Z,8.67
2023-01-22T16:43:05.085Z,9.37
2023-01-22T16:48:11.181Z,9.27
2023-01-22T16:53:16.915Z,9.30
2023-01-22T16:58:20.235Z,9.23
2023-01-22T17:03:24.469Z,9.23
2023-01-22T17:08:29.621Z,9.17
2023-01-22T17:13:33.755Z,9.70
2023-01-22T17:18:37.397Z,9.17
2023-01-22T17:23:42.199Z,9.73
2023-01-22T17:28:46.538Z,12.07
2023-01-22T17:33:51.112Z,11.93
2023-01-22T17:38:58.201Z,10.50
2023-01-22T17:44:00.873Z,11.00
2023-01-22T17:49:10.417Z,11.43
2023-01-22T17:54:16.839Z,11.67
2023-01-22T17:59:24.400Z,11.03
2023-01-22T18:04:28.733Z,11.73
2023-01-22T18:09:34.460Z,11.77
2023-01-22T18:14:39.225Z,13.77
2023-01-22T18:19:44.589Z,13.83
2023-01-22T18:24:51.926Z,13.60
2023-01-22T18:29:55.827Z,13.00
2023-01-22T18:34:59.703Z,12.30
2023-01-22T18:40:05.665Z,11.10
2023-01-22T18:45:11.051Z,10.30
2023-01-22T18:50:17.359Z,10.90
2023-01-22T18:55:23.535Z,10.00
2023-01-22T19:00:27.213Z,9.63
2023-01-22T19:05:31.497Z,8.03
2023-01-22T19:10:37.894Z,8.73
2023-01-22T19:15:41.115Z,11.63
2023-01-22T19:20:46.637Z,11.60
2023-01-22T19:25:57.751Z,11.33
2023-01-22T19:31:01.755Z,11.40
2023-01-22T19:36:06.355Z,12.03
2023-01-22T19:41:11.700Z,12.40
2023-01-22T19:46:19.668Z,12.33
2023-01-22T19:51:25.460Z,12.13
2023-01-22T19:56:32.588Z,9.57
2023-01-22T20:01:58.992Z,10.47
2023-01-22T20:07:27.262Z,11.10
2023-01-22T20:12:33.950Z,10.30
2023-01-22T20:17:45.650Z,7.53
2023-01-22T20:22:51.869Z,7.10
2023-01-22T20:27:57.564Z,7.50
2023-01-22T20:33:01.717Z,8.00
2023-01-22T20:38:07.136Z,7.10
2023-01-22T20:43:13.758Z,7.60
2023-01-22T20:48:23.073Z,7.63
2023-01-22T20:53:28.389Z,7.80
2023-01-22T20:58:32.796Z,7.27
2023-01-22T21:03:37.432Z,8.67
2023-01-22T21:08:42.080Z,9.70
2023-01-22T21:13:47.493Z,10.00
2023-01-22T21:18:50.969Z,9.07
2023-01-22T21:23:57.835Z,9.23
2023-01-22T21:29:05.240Z,9.27
2023-01-22T21:34:11.089Z,9.03
2023-01-22T21:39:16.242Z,11.17
2023-01-22T21:44:38.468Z,10.53
2023-01-22T21:49:42.967Z,10.50
2023-01-22T21:54:45.203Z,9.83
2023-01-22T21:59:48.880Z,10.33
2023-01-22T22:04:51.293Z,10.20
2023-01-22T22:09:53.744Z,10.60
2023-01-22T22:14:57.398Z,11.60
2023-01-22T22:19:59.760Z,11.97
2023-01-22T22:25:02.008Z,12.53
2023-01-22T22:30:06.441Z,10.43
2023-01-22T22:35:09.269Z,9.43
2023-01-22T22:40:12.655Z,9.23
2023-01-22T22:45:17.279Z,8.93
2023-01-22T22:50:19.991Z,9.87
2023-01-22T22:55:22.377Z,9.03
2023-01-22T23:00:26.243Z,9.50
2023-01-22T23:05:28.351Z,8.93
2023-01-22T23:10:30.698Z,9.47
2023-01-22T23:15:34.360Z,9.00
2023-01-22T23:20:39.118Z,8.50
2023-01-22T23:25:44.496Z,8.37
2023-01-22T23:30:49.659Z,9.10
2023-01-22T23:35:52.522Z,8.87
2023-01-22T23:40:58.270Z,8.53
2023-01-22T23:46:02.023Z,7.57
2023-01-22T23:51:04.505Z,7.20
2023-01-22T23:56:07.435Z,7.53
